ETHF/FRZ METAR and TAF weather

Enter ICAO airport designator
Station Type Date Time Source
ETHF METAR 2019/08/19 11:20 UTC NOAA

ETHF 191120Z 27016G27KT 9999 SCT060 22/06 Q1017 BLU+BLU+


Station Type Date Time Source
ETHF Decoded METAR 2019/08/19 11:20 UTC NOAA

Station name not available
Aug 19, 2019 - 07:20 AM EDT / 2019.08.19 1120 UTC
Wind: from the W (270 degrees) at 18 MPH (16 KT) gusting to 31 MPH (27 KT):0
Visibility: greater than 7 mile(s):0
Sky conditions: partly cloudy
Temperature: 71 F (22 C)
Dew Point: 42 F (6 C)
Relative Humidity: 35%
Pressure (altimeter): 30.03 in. Hg (1017 hPa)
ob: ETHF 191120Z 27016G27KT 9999 SCT060 22/06 Q1017 BLU+BLU+
cycle: 11

Station Type Date Time Source
ETHF TAF 2018/05/18 05:37 UTC NOAA

TAF ETHF 180407Z 1805/1818 35006KT 9999 NSW BKN020
TEMPO 1805/1808 33005KT 9999 NSW BKN012
BECMG 1809/1811 36008KT 9999 NSW SCT030 BKN180

Example: see airport list